»·PEaware :: AAL821 KLAS-KPHX

AAL821 :: KLAS-KPHX

FLIGHT INFORMATION

Flight Status: Arrived
Operator:
American Airlines
More flights by this operator :: More flights under this callsign
Pilot: Andre N. (13929)
Aircraft: AIRBUS A320
(A320)
More flights by this aircraft type
Origin: KLAS McCarran Intl
United States
Destination: KPHX Phoenix Sky Harbor Intl
United States
More flights between these airports :: More routes between these airports
Route: COWBY8 COWBY TENTS BRUSR1
File this flight plan on PilotEdge
Remarks:
Altitude:
(Current/Filed)
29,000ft
Speed:
(Current/Filed)
450kts
Departed: 04-Apr-18 07:07 PM
Arrived: 04-Apr-18 08:00 PM
Distance/Time
Traveled:
222nm/0:53
Distance/Time
To Go:
Arrived

Flight Plot

Page will automatically refresh every two minutes.

Flight plan parsing failed; only flown route is shown


Map Options




Map Legend


Flown Route
Filed Route
Departure Airport
Arrival Airport
Navaid (VOR, NDB)
Fix

Horizontal Profiles

Position Reports

Time Latitude Longitude Heading Altitude Ground
Speed
04-Apr-18 18:43 36.081651 -115.135912 264 2190ft 0kts
04-Apr-18 18:44 36.081651 -115.135912 264 2190ft 0kts
04-Apr-18 18:45 36.081651 -115.135912 264 2190ft 0kts
04-Apr-18 18:46 36.081651 -115.135912 264 2190ft 0kts
04-Apr-18 18:47 36.081651 -115.135912 264 2190ft 0kts
04-Apr-18 18:48 36.081651 -115.135912 264 2190ft 0kts
04-Apr-18 18:49 36.081651 -115.135912 264 2190ft 0kts
04-Apr-18 18:50 36.081651 -115.135912 264 2190ft 0kts
04-Apr-18 18:51 36.081651 -115.135912 264 2190ft 0kts
04-Apr-18 18:52 36.081651 -115.135912 264 2190ft 0kts
04-Apr-18 18:53 36.081651 -115.135911 264 2190ft 0kts
04-Apr-18 18:54 36.081676 -115.135463 266 2190ft 2kts
04-Apr-18 18:55 36.081714 -115.134738 266 2190ft 2kts
04-Apr-18 18:56 36.081767 -115.134112 233 2190ft 2kts
04-Apr-18 18:57 36.082253 -115.133751 182 2190ft 0kts
04-Apr-18 18:58 36.082313 -115.133751 179 2190ft 0kts
04-Apr-18 18:59 36.082313 -115.133751 179 2190ft 0kts
04-Apr-18 19:00 36.082313 -115.133751 179 2190ft 0kts
04-Apr-18 19:01 36.081714 -115.133744 179 2190ft 10kts
04-Apr-18 19:02 36.078263 -115.132902 96 2190ft 15kts
04-Apr-18 19:03 36.078279 -115.127131 90 2190ft 18kts
04-Apr-18 19:04 36.077581 -115.121656 130 2190ft 0kts
04-Apr-18 19:05 36.077061 -115.121279 171 2190ft 10kts
04-Apr-18 19:06 36.076462 -115.144840 270 2585ft 170kts
04-Apr-18 19:07 36.076506 -115.215390 269 5366ft 246kts
04-Apr-18 19:08 36.027650 -115.276428 198 7465ft 283kts
04-Apr-18 19:09 35.954079 -115.295965 163 10692ft 305kts
04-Apr-18 19:10 35.869380 -115.248817 128 12097ft 376kts
04-Apr-18 19:11 35.833863 -115.126876 103 14256ft 401kts
04-Apr-18 19:12 35.829026 -114.989069 81 16231ft 423kts
04-Apr-18 19:13 35.817631 -114.841801 99 18295ft 443kts
04-Apr-18 19:14 35.798340 -114.691269 98 20320ft 455kts
04-Apr-18 19:15 35.778586 -114.536457 98 22139ft 467kts
04-Apr-18 19:16 35.758053 -114.377074 99 23795ft 478kts
04-Apr-18 19:17 35.738643 -114.227969 99 25130ft 487kts
04-Apr-18 19:18 35.717024 -114.063602 99 26475ft 497kts
04-Apr-18 19:19 35.694786 -113.896362 99 27667ft 506kts
04-Apr-18 19:20 35.671946 -113.726366 99 29048ft 504kts
04-Apr-18 19:21 35.649208 -113.559045 99 29095ft 503kts
04-Apr-18 19:22 35.625987 -113.390057 99 29096ft 504kts
04-Apr-18 19:23 35.604774 -113.237208 100 29091ft 503kts
04-Apr-18 19:24 35.581142 -113.068649 100 29230ft 504kts
04-Apr-18 19:25 35.557337 -112.900631 100 29233ft 503kts
04-Apr-18 19:26 35.533147 -112.731642 100 29232ft 503kts
04-Apr-18 19:27 35.503861 -112.566206 114 29226ft 506kts
04-Apr-18 19:28 35.409957 -112.446121 158 29255ft 497kts
04-Apr-18 19:29 35.279114 -112.410131 175 29271ft 483kts
04-Apr-18 19:30 35.147976 -112.383638 173 29262ft 479kts
04-Apr-18 19:31 35.018652 -112.355295 174 28326ft 462kts
04-Apr-18 19:32 34.900740 -112.329747 175 26522ft 447kts
04-Apr-18 19:33 34.805499 -112.308990 174 25426ft 439kts
04-Apr-18 19:34 34.718770 -112.289870 174 24498ft 431kts
04-Apr-18 19:35 34.604379 -112.264732 174 23300ft 406kts
04-Apr-18 19:36 34.497882 -112.241412 174 22454ft 386kts
04-Apr-18 19:37 34.395132 -112.216885 172 20911ft 380kts
04-Apr-18 19:38 34.293684 -112.190605 172 19264ft 369kts
04-Apr-18 19:39 34.200178 -112.166345 172 17515ft 332kts
04-Apr-18 19:40 34.110560 -112.143297 172 15330ft 320kts
04-Apr-18 19:41 34.027452 -112.113100 165 13365ft 324kts
04-Apr-18 19:42 33.951284 -112.082096 164 11525ft 301kts
04-Apr-18 19:43 33.875601 -112.051423 162 9618ft 304kts
04-Apr-18 19:44 33.801165 -112.021204 162 8912ft 271kts
04-Apr-18 19:45 33.731806 -111.993134 162 8203ft 264kts
04-Apr-18 19:46 33.662728 -111.965273 162 8059ft 265kts
04-Apr-18 19:47 33.597701 -111.938972 162 7528ft 240kts
04-Apr-18 19:48 33.537293 -111.911464 136 7063ft 243kts
04-Apr-18 19:49 33.526681 -111.835230 90 7056ft 242kts
04-Apr-18 19:50 33.525993 -111.759506 90 6533ft 206kts
04-Apr-18 19:51 33.511698 -111.698527 159 5487ft 200kts
04-Apr-18 19:52 33.460185 -111.700937 232 5051ft 198kts
04-Apr-18 19:53 33.441282 -111.758593 266 4623ft 183kts
04-Apr-18 19:54 33.440885 -111.817293 269 3615ft 163kts
04-Apr-18 19:55 33.440827 -111.866303 268 2967ft 138kts
04-Apr-18 19:56 33.440662 -111.912264 272 2608ft 138kts
04-Apr-18 19:57 33.440881 -111.957693 269 1761ft 136kts
04-Apr-18 19:58 33.440803 -112.001038 269 1143ft 84kts
04-Apr-18 19:59 33.439974 -112.007365 182 1143ft 0kts
04-Apr-18 20:00 33.438991 -112.006067 88 1143ft 22kts
04-Apr-18 20:01 33.438225 -112.000631 169 1143ft 0kts
04-Apr-18 20:02 33.437832 -111.999807 110 1143ft 0kts
04-Apr-18 20:03 33.437832 -111.999807 110 1143ft 0kts

Navigation Log

Ident Type
Flight plan parsing failed, navigation log unavailable